Aviation Digital Data Service (ADDS)

Output produced by METARs form (1813 UTC 19 October 2017)
found at http://www.aviationweather.gov/adds/metars/
 
KATL 191728Z 1918/2024 01003KT P6SM SKC 
     FM200000 VRB03KT P6SM SKC 
     FM201400 08004KT P6SM SKC